createdAt,value
2022-08-23T00:04:22.208Z,100225.88
2022-08-23T00:09:35.417Z,100232.41
2022-08-23T00:14:43.137Z,100221.16
2022-08-23T00:19:49.027Z,100220.59
2022-08-23T00:24:51.805Z,100218.84
2022-08-23T00:29:56.836Z,100223.31
2022-08-23T00:35:00.936Z,100218.69
2022-08-23T00:40:05.149Z,100214.34
2022-08-23T00:45:32.414Z,100210.94
2022-08-23T00:50:42.139Z,100219.03
2022-08-23T00:55:47.323Z,100223.09
2022-08-23T01:00:54.324Z,100217.88
2022-08-23T01:06:02.498Z,100215.56
2022-08-23T01:11:10.322Z,100220.72
2022-08-23T01:16:19.084Z,100227.47
2022-08-23T01:21:28.435Z,100232.56
2022-08-23T01:26:35.269Z,100232.94
2022-08-23T01:31:38.475Z,100218.53
2022-08-23T01:36:43.512Z,100210.81
2022-08-23T01:41:47.704Z,100219.44
2022-08-23T01:46:50.583Z,100219.09
2022-08-23T01:52:00.136Z,100222.25
2022-08-23T01:57:06.998Z,100217.03
2022-08-23T02:02:11.397Z,100215.31
2022-08-23T02:07:14.249Z,100231.53
2022-08-23T02:12:18.606Z,100226.28
2022-08-23T02:17:22.136Z,100238.81
2022-08-23T02:22:25.023Z,100242.72
2022-08-23T02:27:29.325Z,100236.25
2022-08-23T02:32:32.121Z,100241.28
2022-08-23T02:37:35.730Z,100246.97
2022-08-23T02:42:41.926Z,100256.78
2022-08-23T02:47:46.152Z,100247.56
2022-08-23T02:52:55.137Z,100259.19
2022-08-23T02:58:00.437Z,100261.25
2022-08-23T03:03:03.572Z,100262.81
2022-08-23T03:08:06.901Z,100258.19
2022-08-23T03:13:19.768Z,100256.22
2022-08-23T03:18:25.080Z,100254.88
2022-08-23T03:23:28.652Z,100256.88
2022-08-23T03:28:34.810Z,100249.38
2022-08-23T03:33:39.302Z,100250.34
2022-08-23T03:38:42.695Z,100261.03
2022-08-23T03:43:47.840Z,100256.09
2022-08-23T03:48:52.155Z,100256.47
2022-08-23T03:53:55.206Z,100260.63
2022-08-23T03:59:01.716Z,100265.44
2022-08-23T04:04:05.576Z,100261.97
2022-08-23T04:09:11.219Z,100269.66
2022-08-23T04:14:16.150Z,100262.63
2022-08-23T04:19:19.105Z,100268.97
2022-08-23T04:24:34.757Z,100274.13
2022-08-23T04:29:39.940Z,100271.94
2022-08-23T04:34:45.492Z,100278.72
2022-08-23T04:40:08.394Z,100263.59
2022-08-23T04:45:18.924Z,100274.56
2022-08-23T04:50:25.903Z,100276.03
2022-08-23T04:55:52.165Z,100280.22
2022-08-23T05:00:56.674Z,100287.88
2022-08-23T05:06:04.946Z,100292.19
2022-08-23T05:11:14.395Z,100298.28
2022-08-23T05:16:19.164Z,100300.59
2022-08-23T05:21:31.118Z,100295.84
2022-08-23T05:26:34.101Z,100292.19
2022-08-23T05:31:38.424Z,100289.31
2022-08-23T05:36:47.594Z,100296.22
2022-08-23T05:42:02.901Z,100297.75
2022-08-23T05:47:11.503Z,100306.88
2022-08-23T05:52:41.536Z,100309.16
2022-08-23T05:57:45.509Z,100307.13
2022-08-23T06:02:50.764Z,100312.00
2022-08-23T06:07:55.737Z,100309.63
2022-08-23T06:13:00.139Z,100313.41
2022-08-23T06:18:05.378Z,100318.03
2022-08-23T06:23:08.936Z,100322.91
2022-08-23T06:28:15.440Z,100327.56
2022-08-23T06:33:20.704Z,100326.69
2022-08-23T06:38:58.532Z,100341.78
2022-08-23T06:44:22.190Z,100343.19
2022-08-23T06:49:52.582Z,100348.38
2022-08-23T06:55:21.212Z,100346.88
2022-08-23T07:00:37.568Z,100346.28
2022-08-23T07:05:50.649Z,100348.03
2022-08-23T07:11:00.028Z,100345.03
2022-08-23T07:16:03.861Z,100358.50
2022-08-23T07:21:09.856Z,100359.16
2022-08-23T07:26:17.446Z,100364.63
2022-08-23T07:31:22.918Z,100363.56
2022-08-23T07:36:28.914Z,100364.84
2022-08-23T07:41:32.763Z,100372.81
2022-08-23T07:46:39.730Z,100376.19
2022-08-23T07:51:48.887Z,100371.88
2022-08-23T07:56:52.607Z,100363.34
2022-08-23T08:02:14.155Z,100369.16
2022-08-23T08:07:20.757Z,100375.41
2022-08-23T08:12:32.846Z,100373.13
2022-08-23T08:17:42.415Z,100380.59
2022-08-23T08:23:07.298Z,100379.06
2022-08-23T08:28:28.395Z,100384.13
2022-08-23T08:33:34.372Z,100383.38
2022-08-23T08:38:47.918Z,100387.13
2022-08-23T08:44:04.721Z,100380.84
2022-08-23T08:49:15.350Z,100380.66
2022-08-23T08:54:23.847Z,100376.13
2022-08-23T08:59:36.246Z,100378.47
2022-08-23T09:04:39.652Z,100388.38
2022-08-23T09:10:26.955Z,100386.75
2022-08-23T09:15:55.922Z,100391.75
2022-08-23T09:21:01.782Z,100390.66
2022-08-23T09:26:18.796Z,100384.59
2022-08-23T09:31:39.920Z,100383.19
2022-08-23T09:36:44.256Z,100386.09
2022-08-23T09:41:48.958Z,100378.88
2022-08-23T09:47:07.070Z,100375.09
2022-08-23T09:52:22.117Z,100373.25
2022-08-23T09:57:34.737Z,100373.84
2022-08-23T10:02:37.661Z,100371.41
2022-08-23T10:07:57.128Z,100364.16
2022-08-23T10:13:02.787Z,100367.84
2022-08-23T10:18:12.000Z,100369.28
2022-08-23T10:23:29.964Z,100374.56
2022-08-23T10:29:00.937Z,100356.66
2022-08-23T10:34:29.867Z,100353.75
2022-08-23T10:39:33.698Z,100353.50
2022-08-23T10:44:49.175Z,100348.84
2022-08-23T10:49:55.685Z,100347.41
2022-08-23T10:55:06.388Z,100343.59
2022-08-23T11:00:18.330Z,100348.94
2022-08-23T11:05:27.143Z,100340.69
2022-08-23T11:10:56.029Z,100348.19
2022-08-23T11:16:14.634Z,100340.97
2022-08-23T11:21:50.161Z,100347.50
2022-08-23T11:27:07.806Z,100338.75
2022-08-23T11:32:38.676Z,100338.63
2022-08-23T11:37:57.112Z,100345.03
2022-08-23T11:43:12.450Z,100346.50
2022-08-23T11:48:25.356Z,100346.88
2022-08-23T11:53:45.254Z,100344.16
2022-08-23T11:59:08.775Z,100349.22
2022-08-23T12:04:31.703Z,100353.28
2022-08-23T12:09:55.972Z,100347.88
2022-08-23T12:15:00.766Z,100350.78
2022-08-23T12:20:16.960Z,100337.88
2022-08-23T12:25:23.190Z,100347.47
2022-08-23T12:30:29.644Z,100340.56
2022-08-23T12:35:41.306Z,100339.06
2022-08-23T12:40:46.879Z,100338.97
2022-08-23T12:45:52.384Z,100346.94
2022-08-23T12:51:04.446Z,100334.13
2022-08-23T12:56:11.921Z,100327.72
2022-08-23T13:01:22.705Z,100324.44
2022-08-23T13:06:31.284Z,100321.84
2022-08-23T13:11:37.285Z,100327.00
2022-08-23T13:16:44.810Z,100327.22
2022-08-23T13:21:53.273Z,100333.13
2022-08-23T13:27:13.834Z,100334.75
2022-08-23T13:32:27.324Z,100330.41
2022-08-23T13:37:33.536Z,100330.91
2022-08-23T13:42:38.759Z,100323.13
2022-08-23T13:47:47.814Z,100322.00
2022-08-23T13:53:13.405Z,100319.06
2022-08-23T13:58:25.249Z,100313.22
2022-08-23T14:03:29.465Z,100313.09
2022-08-23T14:08:33.625Z,100315.41
2022-08-23T14:13:37.330Z,100310.59
2022-08-23T14:19:16.329Z,100317.47
2022-08-23T14:24:05.045Z,100313.50
2022-08-23T14:29:07.876Z,100318.03
2022-08-23T14:34:18.123Z,100308.81
2022-08-23T14:39:22.549Z,100311.13
2022-08-23T14:44:29.000Z,100304.72
2022-08-23T14:49:36.055Z,100304.31
2022-08-23T14:54:40.295Z,100304.25
2022-08-23T14:59:43.135Z,100304.19
2022-08-23T15:04:45.903Z,100306.09
2022-08-23T15:09:54.483Z,100310.97
2022-08-23T15:14:57.389Z,100305.47
2022-08-23T15:20:00.658Z,100304.06
2022-08-23T15:25:05.489Z,100302.66
2022-08-23T15:30:09.454Z,100294.84
2022-08-23T15:35:12.371Z,100302.53
2022-08-23T15:40:17.017Z,100292.13
2022-08-23T15:45:20.135Z,100294.22
2022-08-23T15:50:27.077Z,100298.94
2022-08-23T15:55:33.570Z,100301.25
2022-08-23T16:00:36.303Z,100306.25
2022-08-23T16:05:41.091Z,100299.13
2022-08-23T16:10:45.666Z,100299.41
2022-08-23T16:15:49.218Z,100295.13
2022-08-23T16:20:54.125Z,100292.56
2022-08-23T16:26:01.170Z,100287.72
2022-08-23T16:31:04.417Z,100287.84
2022-08-23T16:36:08.544Z,100292.31
2022-08-23T16:41:13.500Z,100306.31
2022-08-23T16:46:17.331Z,100302.16
2022-08-23T16:51:21.654Z,100300.16
2022-08-23T16:56:25.853Z,100297.59
2022-08-23T17:01:29.615Z,100286.03
2022-08-23T17:06:32.534Z,100301.06
2022-08-23T17:11:37.736Z,100306.19
2022-08-23T17:16:41.106Z,100313.22
2022-08-23T17:21:44.826Z,100314.34
2022-08-23T17:26:49.653Z,100317.66
2022-08-23T17:31:52.495Z,100314.50
2022-08-23T17:36:56.294Z,100316.34
2022-08-23T17:42:00.548Z,100318.06
2022-08-23T17:47:07.688Z,100329.53
2022-08-23T17:52:11.587Z,100328.66
2022-08-23T17:57:16.056Z,100334.66
2022-08-23T18:02:20.635Z,100342.38
2022-08-23T18:07:23.473Z,100339.53
2022-08-23T18:12:28.377Z,100355.69
2022-08-23T18:17:31.671Z,100358.56
2022-08-23T18:22:34.462Z,100368.28
2022-08-23T18:27:56.063Z,100385.72
2022-08-23T18:32:58.936Z,100380.72
2022-08-23T18:38:02.412Z,100395.31
2022-08-23T18:43:07.503Z,100397.88
2022-08-23T18:48:12.223Z,100402.19
2022-08-23T18:53:15.405Z,100408.47
2022-08-23T18:58:21.029Z,100412.06
2022-08-23T19:03:25.594Z,100417.66
2022-08-23T19:08:28.356Z,100423.94
2022-08-23T19:13:33.043Z,100426.66
2022-08-23T19:18:36.207Z,100435.94
2022-08-23T19:23:39.008Z,100435.66
2022-08-23T19:28:43.575Z,100435.94
2022-08-23T19:33:46.407Z,100440.69
2022-08-23T19:38:49.426Z,100445.13
2022-08-23T19:43:53.769Z,100450.25
2022-08-23T19:48:56.985Z,100459.41
2022-08-23T19:54:10.947Z,100459.41
2022-08-23T19:59:19.559Z,100462.84
2022-08-23T20:04:23.282Z,100464.41
2022-08-23T20:09:28.639Z,100461.25
2022-08-23T20:14:33.914Z,100462.25
2022-08-23T20:19:37.112Z,100460.53
2022-08-23T20:24:51.432Z,100463.97
2022-08-23T20:29:56.973Z,100460.41
2022-08-23T20:35:00.105Z,100455.13
2022-08-23T20:40:03.628Z,100461.13
2022-08-23T20:45:09.236Z,100470.44
2022-08-23T20:50:12.079Z,100471.44
2022-08-23T20:55:15.083Z,100471.88
2022-08-23T21:00:19.498Z,100464.84
2022-08-23T21:05:22.436Z,100467.16
2022-08-23T21:10:27.016Z,100479.91
2022-08-23T21:15:31.718Z,100475.16
2022-08-23T21:20:34.548Z,100475.59
2022-08-23T21:25:37.529Z,100479.19
2022-08-23T21:30:41.796Z,100476.47
2022-08-23T21:35:45.426Z,100477.16
2022-08-23T21:40:55.660Z,100470.41
2022-08-23T21:46:00.045Z,100464.44
2022-08-23T21:51:02.991Z,100470.88
2022-08-23T21:56:05.966Z,100472.91
2022-08-23T22:01:10.167Z,100472.91
2022-08-23T22:06:14.370Z,100469.28
2022-08-23T22:11:17.257Z,100463.84
2022-08-23T22:16:22.451Z,100472.91
2022-08-23T22:21:26.417Z,100476.88
2022-08-23T22:26:29.665Z,100476.28
2022-08-23T22:31:35.542Z,100471.88
2022-08-23T22:36:38.335Z,100472.28
2022-08-23T22:41:41.085Z,100468.25
2022-08-23T22:46:45.329Z,100466.81
2022-08-23T22:51:49.186Z,100467.25
2022-08-23T22:56:58.424Z,100457.81
2022-08-23T23:02:04.092Z,100458.38
2022-08-23T23:07:07.067Z,100462.34
2022-08-23T23:12:09.894Z,100452.88
2022-08-23T23:17:14.101Z,100456.00
2022-08-23T23:22:16.832Z,100455.09
2022-08-23T23:27:19.602Z,100448.09
2022-08-23T23:32:23.730Z,100454.66
2022-08-23T23:37:26.565Z,100441.47
2022-08-23T23:42:29.286Z,100433.16
2022-08-23T23:47:33.490Z,100444.44
2022-08-23T23:52:36.843Z,100442.97
2022-08-23T23:57:39.689Z,100441.66
